Time,TemperatureF,DewpointF,PressureIn,WindDirection,WindDirectionDegrees,WindSpeedMPH,WindSpeedGustMPH,Humidity,HourlyPrecipIn,Conditions,Clouds,dailyrainin,SoftwareType,DateUTC
2013-02-20 00:00:00,38.7,33.6,29.56,WNW,292,1.1,2.3,82,0.00,RA,,0.00,WeatherDisplay:10.37,2013-02-20 05:00:00,
2013-02-20 00:01:00,38.7,33.6,29.56,WNW,292,1.1,2.3,82,0.00,-RA,,0.00,WeatherDisplay:10.37,2013-02-20 05:01:00,
2013-02-20 00:03:00,38.7,33.6,29.56,NNE,22,1.1,0.0,82,0.00,-RA,,0.00,WeatherDisplay:10.37,2013-02-20 05:03:00,
2013-02-20 00:08:00,38.7,33.6,29.56,NNE,22,1.1,0.0,82,0.00,-RA,,0.00,WeatherDisplay:10.37,2013-02-20 05:08:00,
2013-02-20 00:10:00,38.7,33.6,29.56,NNE,22,1.1,0.0,82,0.00,-RA,,0.00,WeatherDisplay:10.37,2013-02-20 05:10:00,
2013-02-20 00:15:00,38.7,33.6,29.56,SSW,202,0.5,1.1,82,0.00,-RA,,0.00,WeatherDisplay:10.37,2013-02-20 05:15:00,
2013-02-20 00:20:00,38.7,33.6,29.56,NNE,22,0.3,1.1,82,0.00,-RA,,0.00,WeatherDisplay:10.37,2013-02-20 05:20:00,
2013-02-20 00:25:00,38.7,33.6,29.56,SSW,202,0.3,0.0,82,0.00,-RA,,0.00,WeatherDisplay:10.37,2013-02-20 05:25:00,
2013-02-20 00:31:00,38.7,33.6,29.56,NNE,22,0.0,0.0,82,0.00,-RA,,0.00,WeatherDisplay:10.37,2013-02-20 05:31:00,
2013-02-20 00:36:00,38.7,33.6,29.56,NNE,22,0.0,0.0,82,0.00,-RA,,0.00,WeatherDisplay:10.37,2013-02-20 05:36:00,
2013-02-20 00:41:00,38.7,33.6,29.54,NNE,22,0.0,0.0,82,0.00,-RA,,0.00,WeatherDisplay:10.37,2013-02-20 05:41:00,
2013-02-20 00:46:00,35.4,31.6,29.54,WNW,292,0.0,0.0,86,0.00,-RA,,0.00,WeatherDisplay:10.37,2013-02-20 05:46:00,
2013-02-20 00:51:00,35.2,31.5,29.54,WNW,292,0.0,0.0,86,0.00,-RA,,0.00,WeatherDisplay:10.37,2013-02-20 05:51:00,
2013-02-20 00:56:00,35.4,31.6,29.54,SW,225,0.0,0.0,86,0.00,-RA,,0.00,WeatherDisplay:10.37,2013-02-20 05:56:00,
2013-02-20 01:01:00,35.4,31.6,29.53,SW,225,0.2,1.1,86,0.00,-RA,,0.00,WeatherDisplay:10.37,2013-02-20 06:01:00,
2013-02-20 01:06:00,35.4,31.6,29.53,SSW,202,0.0,0.0,86,0.00,-RA,,0.00,WeatherDisplay:10.37,2013-02-20 06:06:00,
2013-02-20 01:11:00,35.4,31.6,29.53,South,180,0.3,1.1,86,0.00,-RA,,0.00,WeatherDisplay:10.37,2013-02-20 06:11:00,
2013-02-20 01:16:00,35.4,31.6,29.53,WNW,292,0.7,2.3,86,0.00,-RA,,0.00,WeatherDisplay:10.37,2013-02-20 06:16:00,
2013-02-20 01:21:00,35.6,31.8,29.53,South,180,1.3,3.5,86,0.00,-RA,,0.00,WeatherDisplay:10.37,2013-02-20 06:21:00,
2013-02-20 01:26:00,35.6,31.8,29.53,WNW,292,1.6,4.6,86,0.00,-RA,,0.00,WeatherDisplay:10.37,2013-02-20 06:26:00,
2013-02-20 01:31:00,35.6,31.8,29.53,North,0,1.5,2.3,86,0.00,-RA,,0.00,WeatherDisplay:10.37,2013-02-20 06:31:00,
2013-02-20 01:36:00,35.6,31.8,29.55,SW,225,1.0,0.0,86,0.00,-RA,,0.00,WeatherDisplay:10.37,2013-02-20 06:36:00,
2013-02-20 01:41:00,35.6,31.8,29.55,SW,225,0.7,2.3,86,0.00,-RA,,0.00,WeatherDisplay:10.37,2013-02-20 06:41:00,
2013-02-20 01:46:00,35.6,31.8,29.55,WNW,292,0.7,2.3,86,0.00,-RA,,0.00,WeatherDisplay:10.37,2013-02-20 06:46:00,
2013-02-20 01:51:00,35.6,31.8,29.55,WNW,292,1.1,2.3,86,0.00,-RA,,0.00,WeatherDisplay:10.37,2013-02-20 06:51:00,
2013-02-20 01:56:00,35.8,32.0,29.55,SW,225,1.6,4.6,86,0.00,-RA,,0.00,WeatherDisplay:10.37,2013-02-20 06:56:00,
2013-02-20 02:01:00,35.8,32.0,29.55,SW,225,1.8,2.3,86,0.00,OVC,,0.00,WeatherDisplay:10.37,2013-02-20 07:01:00,
2013-02-20 02:06:00,35.8,32.0,29.55,WSW,248,1.6,1.6,86,0.00,OVC,,0.00,WeatherDisplay:10.37,2013-02-20 07:06:00,
2013-02-20 02:11:00,36.0,32.2,29.55,WNW,292,1.5,2.3,86,0.00,OVC,,0.00,WeatherDisplay:10.37,2013-02-20 07:11:00,
2013-02-20 02:16:00,35.8,32.0,29.55,WNW,292,1.6,3.5,86,0.00,OVC,,0.00,WeatherDisplay:10.37,2013-02-20 07:16:00,
2013-02-20 02:21:00,35.8,32.0,29.53,NW,315,1.7,2.3,86,0.00,OVC,,0.00,WeatherDisplay:10.37,2013-02-20 07:21:00,
2013-02-20 02:26:00,35.8,32.0,29.53,WNW,292,2.4,3.5,86,0.00,OVC,,0.00,WeatherDisplay:10.37,2013-02-20 07:26:00,
2013-02-20 02:31:00,35.6,31.8,29.53,NW,315,3.6,6.9,86,0.00,OVC,,0.00,WeatherDisplay:10.37,2013-02-20 07:31:00,
2013-02-20 02:36:00,35.1,31.3,29.53,WSW,248,4.0,4.0,86,0.00,OVC,,0.00,WeatherDisplay:10.37,2013-02-20 07:36:00,
2013-02-20 02:41:00,34.3,30.6,29.54,West,270,3.7,5.8,86,0.00,OVC,,0.00,WeatherDisplay:10.37,2013-02-20 07:41:00,
2013-02-20 02:46:00,33.6,29.9,29.54,WSW,248,3.8,9.2,86,0.00,OVC,,0.00,WeatherDisplay:10.37,2013-02-20 07:46:00,
2013-02-20 02:51:00,33.4,29.7,29.54,WSW,248,3.8,5.8,86,0.00,OVC,,0.00,WeatherDisplay:10.37,2013-02-20 07:51:00,
2013-02-20 02:56:00,33.3,29.5,29.54,SW,225,3.1,3.5,86,0.00,OVC,,0.00,WeatherDisplay:10.37,2013-02-20 07:56:00,
2013-02-20 03:05:00,33.3,29.5,29.55,NW,315,2.6,4.6,86,0.00,OVC,,0.00,WeatherDisplay:10.37,2013-02-20 08:05:00,
2013-02-20 03:10:00,33.3,29.5,29.55,NW,315,2.6,4.6,86,0.00,OVC,,0.00,WeatherDisplay:10.37,2013-02-20 08:10:00,
2013-02-20 03:15:00,32.7,28.7,29.55,NW,315,3.5,3.5,85,0.00,OVC,,0.00,WeatherDisplay:10.37,2013-02-20 08:15:00,
2013-02-20 03:20:00,32.2,28.2,29.54,NW,315,3.3,3.3,85,0.00,OVC,,0.00,WeatherDisplay:10.37,2013-02-20 08:20:00,
2013-02-20 03:25:00,32.0,28.0,29.54,NW,315,2.8,2.8,85,0.00,OVC,,0.00,WeatherDisplay:10.37,2013-02-20 08:25:00,
2013-02-20 03:30:00,31.6,27.6,29.54,NW,315,2.2,6.9,85,0.00,OVC,,0.00,WeatherDisplay:10.37,2013-02-20 08:30:00,
2013-02-20 03:35:00,31.8,27.8,29.54,NW,315,2.3,9.2,85,0.00,OVC,,0.00,WeatherDisplay:10.37,2013-02-20 08:35:00,
2013-02-20 03:40:00,31.5,27.5,29.55,NW,315,2.9,6.9,85,0.00,OVC,,0.00,WeatherDisplay:10.37,2013-02-20 08:40:00,
2013-02-20 03:45:00,31.1,27.1,29.55,NW,315,3.0,5.8,85,0.00,OVC,,0.00,WeatherDisplay:10.37,2013-02-20 08:45:00,
2013-02-20 03:50:00,31.1,26.8,29.55,NW,315,3.0,3.5,84,0.00,OVC,,0.00,WeatherDisplay:10.37,2013-02-20 08:50:00,
2013-02-20 03:55:00,31.1,26.8,29.55,NW,315,3.0,3.5,84,0.00,OVC,,0.00,WeatherDisplay:10.37,2013-02-20 08:55:00,
2013-02-20 04:00:00,30.7,26.5,29.55,NW,315,3.1,5.8,84,0.00,OVC,,0.00,WeatherDisplay:10.37,2013-02-20 09:00:00,
2013-02-20 04:05:00,30.7,26.5,29.55,NW,315,2.9,5.1,84,0.00,OVC,,0.00,WeatherDisplay:10.37,2013-02-20 09:05:00,
2013-02-20 04:10:00,30.7,26.5,29.55,NW,315,3.0,4.6,84,0.00,OVC,,0.00,WeatherDisplay:10.37,2013-02-20 09:10:00,
2013-02-20 04:15:00,30.7,26.5,29.55,NW,315,3.2,3.5,84,0.00,OVC,,0.00,WeatherDisplay:10.37,2013-02-20 09:15:00,
2013-02-20 04:20:00,30.6,26.3,29.55,NW,315,3.7,3.7,84,0.00,OVC,,0.00,WeatherDisplay:10.37,2013-02-20 09:20:00,
2013-02-20 04:25:00,30.7,26.2,29.55,NW,315,3.6,6.9,83,0.00,OVC,,0.00,WeatherDisplay:10.37,2013-02-20 09:25:00,
2013-02-20 04:30:00,30.4,25.5,29.55,NW,315,4.1,7.2,82,0.00,OVC,,0.00,WeatherDisplay:10.37,2013-02-20 09:30:00,
2013-02-20 04:35:00,30.4,25.5,29.55,NW,315,3.9,4.6,82,0.00,OVC,,0.00,WeatherDisplay:10.37,2013-02-20 09:35:00,
2013-02-20 04:40:00,30.0,25.5,29.55,NW,315,3.5,5.8,83,0.00,OVC,,0.00,WeatherDisplay:10.37,2013-02-20 09:40:00,
2013-02-20 04:45:00,30.4,25.5,29.55,NW,315,3.7,5.8,82,0.00,OVC,,0.00,WeatherDisplay:10.37,2013-02-20 09:45:00,
2013-02-20 04:50:00,30.0,24.9,29.55,NW,315,4.9,4.9,81,0.00,OVC,,0.00,WeatherDisplay:10.37,2013-02-20 09:50:00,
2013-02-20 04:55:00,29.8,25.0,29.55,NW,315,3.5,5.8,82,0.00,OVC,,0.00,WeatherDisplay:10.37,2013-02-20 09:55:00,
2013-02-20 05:00:00,29.8,25.0,29.56,NW,315,3.0,3.0,82,0.00,OVC,,0.00,WeatherDisplay:10.37,2013-02-20 10:00:00,
2013-02-20 05:05:00,30.0,24.9,29.56,NW,315,4.0,4.0,81,0.00,SCT,,0.00,WeatherDisplay:10.37,2013-02-20 10:05:00,
2013-02-20 05:10:00,29.7,23.9,29.56,NW,315,4.3,5.8,79,0.00,SCT,,0.00,WeatherDisplay:10.37,2013-02-20 10:10:00,
2013-02-20 05:15:00,29.7,23.9,29.56,NW,315,4.5,4.6,79,0.00,SCT,,0.00,WeatherDisplay:10.37,2013-02-20 10:15:00,
2013-02-20 05:20:00,29.7,23.9,29.57,NW,315,3.6,3.6,79,0.00,SCT,,0.00,WeatherDisplay:10.37,2013-02-20 10:20:00,
2013-02-20 05:25:00,29.7,23.9,29.57,NW,315,3.3,5.8,79,0.00,SCT,,0.00,WeatherDisplay:10.37,2013-02-20 10:25:00,
2013-02-20 05:30:00,29.1,23.4,29.57,NW,315,3.3,6.9,79,0.00,SCT,,0.00,WeatherDisplay:10.37,2013-02-20 10:30:00,
2013-02-20 05:35:00,29.3,23.9,29.57,NW,315,3.1,4.6,80,0.00,SCT,,0.00,WeatherDisplay:10.37,2013-02-20 10:35:00,
2013-02-20 05:40:00,28.9,23.5,29.57,NW,315,2.8,2.8,80,0.00,SCT,,0.00,WeatherDisplay:10.37,2013-02-20 10:40:00,
2013-02-20 05:45:00,28.8,23.4,29.57,NW,315,2.6,2.6,80,0.00,SCT,,0.00,WeatherDisplay:10.37,2013-02-20 10:45:00,
2013-02-20 05:50:00,28.9,23.5,29.57,NW,315,2.2,2.3,80,0.00,SCT,,0.00,WeatherDisplay:10.37,2013-02-20 10:50:00,
2013-02-20 05:55:00,28.9,23.5,29.57,NW,315,2.6,6.9,80,0.00,SCT,,0.00,WeatherDisplay:10.37,2013-02-20 10:55:00,
2013-02-20 06:00:00,28.9,23.5,29.58,NW,315,3.1,4.6,80,0.00,SCT,,0.00,WeatherDisplay:10.37,2013-02-20 11:00:00,
2013-02-20 06:05:00,28.9,23.5,29.58,NW,315,3.1,3.5,80,0.00,SCT,,0.00,WeatherDisplay:10.37,2013-02-20 11:05:00,
2013-02-20 06:10:00,28.9,23.5,29.58,NW,315,3.1,3.5,80,0.00,SCT,,0.00,WeatherDisplay:10.37,2013-02-20 11:10:00,
2013-02-20 06:15:00,28.9,23.5,29.58,NW,315,2.9,2.9,80,0.00,SCT,,0.00,WeatherDisplay:10.37,2013-02-20 11:15:00,
2013-02-20 06:20:00,28.9,23.5,29.59,NW,315,3.3,10.4,80,0.00,SCT,,0.00,WeatherDisplay:10.37,2013-02-20 11:20:00,
2013-02-20 06:25:00,28.9,23.5,29.59,NW,315,4.3,4.3,80,0.00,SCT,,0.00,WeatherDisplay:10.37,2013-02-20 11:25:00,
2013-02-20 06:30:00,28.9,23.5,29.59,NW,315,4.3,8.1,80,0.00,SCT,,0.00,WeatherDisplay:10.37,2013-02-20 11:30:00,
2013-02-20 06:35:00,28.9,23.5,29.59,NW,315,3.9,3.9,80,0.00,SCT,,0.00,WeatherDisplay:10.37,2013-02-20 11:35:00,
2013-02-20 06:40:00,28.9,23.5,29.60,NW,315,4.3,6.9,80,0.00,SCT,,0.00,WeatherDisplay:10.37,2013-02-20 11:40:00,
2013-02-20 06:45:00,28.9,23.5,29.60,NW,315,4.4,5.8,80,0.00,SCT,,0.00,WeatherDisplay:10.37,2013-02-20 11:45:00,
2013-02-20 06:50:00,28.9,23.5,29.60,NW,315,3.6,4.6,80,0.00,SCT,,0.00,WeatherDisplay:10.37,2013-02-20 11:50:00,
2013-02-20 06:55:00,28.9,23.5,29.60,NW,315,3.5,3.5,80,0.00,SCT,,0.00,WeatherDisplay:10.37,2013-02-20 11:55:00,
2013-02-20 07:00:00,28.9,23.5,29.61,NW,315,3.5,3.5,80,0.00,SCT,,0.00,WeatherDisplay:10.37,2013-02-20 12:00:00,
2013-02-20 07:05:00,28.9,23.5,29.61,NW,315,3.0,3.0,80,0.00,SCT,,0.00,WeatherDisplay:10.37,2013-02-20 12:05:00,
2013-02-20 07:10:00,28.9,23.5,29.61,NW,315,2.3,2.3,80,0.00,SCT,,0.00,WeatherDisplay:10.37,2013-02-20 12:10:00,
2013-02-20 07:15:00,28.9,23.5,29.61,NW,315,2.1,2.3,80,0.00,SCT,,0.00,WeatherDisplay:10.37,2013-02-20 12:15:00,
2013-02-20 07:20:00,28.9,23.5,29.62,NW,315,2.3,6.9,80,0.00,SCT,,0.00,WeatherDisplay:10.37,2013-02-20 12:20:00,
2013-02-20 07:25:00,28.9,23.5,29.62,NW,315,2.3,2.3,80,0.00,SCT,,0.00,WeatherDisplay:10.37,2013-02-20 12:25:00,
2013-02-20 07:30:00,28.9,23.5,29.62,NW,315,2.6,4.6,80,0.00,SCT,,0.00,WeatherDisplay:10.37,2013-02-20 12:30:00,
2013-02-20 07:35:00,28.9,23.5,29.62,NW,315,2.6,2.6,80,0.00,SCT,,0.00,WeatherDisplay:10.37,2013-02-20 12:35:00,
2013-02-20 07:40:00,28.9,23.5,29.62,NW,315,2.8,5.8,80,0.00,SCT,,0.00,WeatherDisplay:10.37,2013-02-20 12:40:00,
2013-02-20 07:45:00,28.9,23.5,29.62,NW,315,2.8,6.9,80,0.00,SCT,,0.00,WeatherDisplay:10.37,2013-02-20 12:45:00,
2013-02-20 07:50:00,28.9,23.5,29.62,NW,315,2.8,4.6,80,0.00,SCT,,0.00,WeatherDisplay:10.37,2013-02-20 12:50:00,
2013-02-20 07:55:00,28.9,23.5,29.62,NW,315,2.3,4.6,80,0.00,SCT,,0.00,WeatherDisplay:10.37,2013-02-20 12:55:00,
2013-02-20 08:00:00,28.9,23.5,29.63,NW,315,2.2,4.6,80,0.00,SCT,,0.00,WeatherDisplay:10.37,2013-02-20 13:00:00,
2013-02-20 08:05:00,28.9,23.5,29.63,NW,315,2.3,5.8,80,0.00,FEW,,0.00,WeatherDisplay:10.37,2013-02-20 13:05:00,
2013-02-20 08:10:00,28.9,23.5,29.63,NW,315,2.3,3.5,80,0.00,FEW,,0.00,WeatherDisplay:10.37,2013-02-20 13:10:00,
2013-02-20 08:15:00,28.9,23.5,29.63,NW,315,2.8,3.5,80,0.00,FEW,,0.00,WeatherDisplay:10.37,2013-02-20 13:15:00,
2013-02-20 08:20:00,28.9,23.5,29.65,NW,315,3.5,3.5,80,0.00,FEW,,0.00,WeatherDisplay:10.37,2013-02-20 13:20:00,
2013-02-20 08:25:00,28.9,23.5,29.65,NW,315,3.3,3.5,80,0.00,FEW,,0.00,WeatherDisplay:10.37,2013-02-20 13:25:00,
2013-02-20 08:30:00,28.9,23.5,29.65,NW,315,2.4,2.4,80,0.00,FEW,,0.00,WeatherDisplay:10.37,2013-02-20 13:30:00,
2013-02-20 08:35:00,28.9,23.5,29.65,NW,315,2.2,3.5,80,0.00,FEW,,0.00,WeatherDisplay:10.37,2013-02-20 13:35:00,
2013-02-20 08:40:00,28.9,23.5,29.67,NW,315,2.9,5.8,80,0.00,FEW,,0.00,WeatherDisplay:10.37,2013-02-20 13:40:00,
2013-02-20 08:45:00,28.9,23.5,29.67,NW,315,3.2,5.8,80,0.00,FEW,,0.00,WeatherDisplay:10.37,2013-02-20 13:45:00,
2013-02-20 08:50:00,28.9,23.5,29.67,NW,315,3.3,3.3,80,0.00,FEW,,0.00,WeatherDisplay:10.37,2013-02-20 13:50:00,
2013-02-20 08:55:00,28.9,23.5,29.67,NW,315,3.5,4.6,80,0.00,FEW,,0.00,WeatherDisplay:10.37,2013-02-20 13:55:00,
2013-02-20 09:00:00,28.9,23.5,29.70,NW,315,3.6,3.6,80,0.00,FEW,,0.00,WeatherDisplay:10.37,2013-02-20 14:00:00,
2013-02-20 09:05:00,28.9,23.5,29.70,NW,315,3.7,6.9,80,0.00,BKN,,0.00,WeatherDisplay:10.37,2013-02-20 14:05:00,
2013-02-20 09:10:00,28.9,23.5,29.70,NW,315,4.1,4.1,80,0.00,BKN,,0.00,WeatherDisplay:10.37,2013-02-20 14:10:00,
2013-02-20 09:15:00,28.9,23.5,29.70,NW,315,4.3,6.9,80,0.00,BKN,,0.00,WeatherDisplay:10.37,2013-02-20 14:15:00,
2013-02-20 09:20:00,28.9,23.5,29.70,NW,315,4.1,5.8,80,0.00,BKN,,0.00,WeatherDisplay:10.37,2013-02-20 14:20:00,
2013-02-20 09:25:00,28.9,23.5,29.70,NW,315,4.0,4.6,80,0.00,BKN,,0.00,WeatherDisplay:10.37,2013-02-20 14:25:00,
2013-02-20 09:30:00,28.9,23.5,29.70,NW,315,3.8,6.9,80,0.00,BKN,,0.00,WeatherDisplay:10.37,2013-02-20 14:30:00,
2013-02-20 09:35:00,28.9,23.5,29.70,NW,315,3.6,4.6,80,0.00,BKN,,0.00,WeatherDisplay:10.37,2013-02-20 14:35:00,
2013-02-20 09:40:00,28.9,23.5,29.70,NW,315,3.2,5.8,80,0.00,BKN,,0.00,WeatherDisplay:10.37,2013-02-20 14:40:00,
2013-02-20 09:45:00,28.9,23.5,29.70,NW,315,2.6,6.9,80,0.00,BKN,,0.00,WeatherDisplay:10.37,2013-02-20 14:45:00,
2013-02-20 09:50:00,28.9,23.5,29.70,NW,315,2.6,2.6,80,0.00,BKN,,0.00,WeatherDisplay:10.37,2013-02-20 14:50:00,
2013-02-20 09:55:00,28.9,23.5,29.70,NW,315,3.1,4.6,80,0.00,BKN,,0.00,WeatherDisplay:10.37,2013-02-20 14:55:00,
2013-02-20 10:00:00,28.9,23.5,29.71,NW,315,3.2,6.9,80,0.00,BKN,,0.00,WeatherDisplay:10.37,2013-02-20 15:00:00,
2013-02-20 10:05:00,28.9,23.5,29.71,NW,315,3.7,8.1,80,0.00,BKN,,0.00,WeatherDisplay:10.37,2013-02-20 15:05:00,
2013-02-20 10:10:00,28.9,23.5,29.71,NW,315,4.6,6.9,80,0.00,BKN,,0.00,WeatherDisplay:10.37,2013-02-20 15:10:00,
2013-02-20 10:15:00,28.9,23.5,29.71,NW,315,4.7,5.8,80,0.00,BKN,,0.00,WeatherDisplay:10.37,2013-02-20 15:15:00,
2013-02-20 10:20:00,28.9,23.5,29.70,SW,225,3.5,9.5,80,0.00,BKN,,0.00,WeatherDisplay:10.37,2013-02-20 15:20:00,
2013-02-20 10:25:00,28.9,23.5,29.70,SW,225,3.2,9.2,80,0.00,BKN,,0.00,WeatherDisplay:10.37,2013-02-20 15:25:00,
2013-02-20 10:30:00,28.9,23.5,29.70,SW,225,4.1,4.1,80,0.00,BKN,,0.00,WeatherDisplay:10.37,2013-02-20 15:30:00,
2013-02-20 10:35:00,28.9,23.5,29.70,WNW,292,3.8,6.9,80,0.00,BKN,,0.00,WeatherDisplay:10.37,2013-02-20 15:35:00,
2013-02-20 10:40:00,28.9,23.5,29.70,SW,225,4.0,6.9,80,0.00,BKN,,0.00,WeatherDisplay:10.37,2013-02-20 15:40:00,
2013-02-20 10:45:00,28.9,23.5,29.70,SW,225,4.0,6.9,80,0.00,BKN,,0.00,WeatherDisplay:10.37,2013-02-20 15:45:00,
2013-02-20 10:50:00,28.9,23.5,29.70,SW,225,4.8,10.4,80,0.00,BKN,,0.00,WeatherDisplay:10.37,2013-02-20 15:50:00,
2013-02-20 10:55:00,28.9,23.5,29.70,SW,225,5.4,12.7,80,0.00,BKN,,0.00,WeatherDisplay:10.37,2013-02-20 15:55:00,
2013-02-20 11:00:00,28.9,23.5,29.71,SW,225,6.1,6.1,80,0.00,BKN,,0.00,WeatherDisplay:10.37,2013-02-20 16:00:00,
2013-02-20 11:05:00,28.9,23.5,29.71,SW,225,5.5,12.7,80,0.00,OVC,,0.00,WeatherDisplay:10.37,2013-02-20 16:05:00,
2013-02-20 11:10:00,28.9,23.5,29.71,SW,225,4.1,4.1,80,0.00,OVC,,0.00,WeatherDisplay:10.37,2013-02-20 16:10:00,
2013-02-20 11:15:00,28.9,23.5,29.71,SW,225,4.0,6.9,80,0.00,OVC,,0.00,WeatherDisplay:10.37,2013-02-20 16:15:00,
2013-02-20 11:20:00,28.9,23.5,29.70,SW,225,3.3,5.8,80,0.00,OVC,,0.00,WeatherDisplay:10.37,2013-02-20 16:20:00,
2013-02-20 11:25:00,28.9,23.5,29.70,SW,225,4.3,8.1,80,0.00,OVC,,0.00,WeatherDisplay:10.37,2013-02-20 16:25:00,
2013-02-20 11:30:00,28.9,23.5,29.70,SW,225,4.4,4.6,80,0.00,OVC,,0.00,WeatherDisplay:10.37,2013-02-20 16:30:00,
2013-02-20 11:35:00,28.9,23.5,29.70,SW,225,3.9,3.9,80,0.00,OVC,,0.00,WeatherDisplay:10.37,2013-02-20 16:35:00,
2013-02-20 11:40:00,28.9,23.5,29.70,SW,225,3.8,6.9,80,0.00,OVC,,0.00,WeatherDisplay:10.37,2013-02-20 16:40:00,
2013-02-20 11:45:00,28.9,23.5,29.70,SW,225,4.7,9.2,80,0.00,OVC,,0.00,WeatherDisplay:10.37,2013-02-20 16:45:00,
2013-02-20 11:50:00,28.9,23.5,29.70,SW,225,4.5,4.5,80,0.00,OVC,,0.00,WeatherDisplay:10.37,2013-02-20 16:50:00,
2013-02-20 11:55:00,28.9,23.5,29.70,SW,225,3.8,9.2,80,0.00,OVC,,0.00,WeatherDisplay:10.37,2013-02-20 16:55:00,
2013-02-20 12:00:00,28.9,23.5,29.70,SW,225,3.7,8.4,80,0.00,OVC,,0.00,WeatherDisplay:10.37,2013-02-20 17:00:00,
2013-02-20 12:05:00,28.9,23.5,29.70,SW,225,3.8,4.6,80,0.00,OVC,,0.00,WeatherDisplay:10.37,2013-02-20 17:05:00,
2013-02-20 12:10:00,28.9,23.5,29.70,SW,225,3.8,4.6,80,0.00,OVC,,0.00,WeatherDisplay:10.37,2013-02-20 17:10:00,
2013-02-20 12:15:00,28.9,23.5,29.70,SW,225,3.6,5.8,80,0.00,OVC,,0.00,WeatherDisplay:10.37,2013-02-20 17:15:00,
2013-02-20 12:20:00,28.9,23.5,29.69,SW,225,4.1,4.6,80,0.00,OVC,,0.00,WeatherDisplay:10.37,2013-02-20 17:20:00,
2013-02-20 12:25:00,28.9,23.5,29.69,SW,225,3.8,3.8,80,0.00,OVC,,0.00,WeatherDisplay:10.37,2013-02-20 17:25:00,
2013-02-20 12:30:00,28.9,23.5,29.69,SW,225,4.3,12.7,80,0.00,OVC,,0.00,WeatherDisplay:10.37,2013-02-20 17:30:00,
2013-02-20 12:35:00,28.9,23.5,29.69,SW,225,4.6,16.7,80,0.00,OVC,,0.00,WeatherDisplay:10.37,2013-02-20 17:35:00,
2013-02-20 12:40:00,28.9,23.5,29.69,SW,225,4.5,4.5,80,0.00,OVC,,0.00,WeatherDisplay:10.37,2013-02-20 17:40:00,
2013-02-20 12:45:00,28.9,23.5,29.69,SW,225,4.0,8.1,80,0.00,OVC,,0.00,WeatherDisplay:10.37,2013-02-20 17:45:00,
2013-02-20 12:50:00,28.9,23.5,29.69,SW,225,3.5,3.5,80,0.00,OVC,,0.00,WeatherDisplay:10.37,2013-02-20 17:50:00,
2013-02-20 12:55:00,28.9,23.5,29.69,SW,225,4.8,8.1,80,0.00,OVC,,0.00,WeatherDisplay:10.37,2013-02-20 17:55:00,
2013-02-20 13:00:00,28.9,23.5,29.67,SW,225,4.8,4.8,80,0.00,OVC,,0.00,WeatherDisplay:10.37,2013-02-20 18:00:00,
2013-02-20 13:05:00,28.9,23.5,29.67,SW,225,4.5,8.1,80,0.00,SCT,,0.00,WeatherDisplay:10.37,2013-02-20 18:05:00,
2013-02-20 13:10:00,28.9,23.5,29.67,SW,225,4.1,4.6,80,0.00,SCT,,0.00,WeatherDisplay:10.37,2013-02-20 18:10:00,
2013-02-20 13:15:00,28.9,23.5,29.67,SW,225,3.7,5.8,80,0.00,SCT,,0.00,WeatherDisplay:10.37,2013-02-20 18:15:00,
2013-02-20 13:20:00,28.9,23.5,29.67,SW,225,3.9,5.8,80,0.00,SCT,,0.00,WeatherDisplay:10.37,2013-02-20 18:20:00,
2013-02-20 13:25:00,28.9,23.5,29.67,SW,225,3.7,3.7,80,0.00,SCT,,0.00,WeatherDisplay:10.37,2013-02-20 18:25:00,
2013-02-20 13:30:00,28.9,23.5,29.67,WNW,292,3.0,3.5,80,0.00,SCT,,0.00,WeatherDisplay:10.37,2013-02-20 18:30:00,
2013-02-20 13:35:00,28.9,23.5,29.67,WNW,292,3.2,8.1,80,0.00,SCT,,0.00,WeatherDisplay:10.37,2013-02-20 18:35:00,
2013-02-20 13:40:00,28.9,23.5,29.67,WSW,248,3.9,10.4,80,0.00,SCT,,0.00,WeatherDisplay:10.37,2013-02-20 18:40:00,
2013-02-20 13:45:00,28.9,23.5,29.67,NW,315,4.4,6.9,80,0.00,SCT,,0.00,WeatherDisplay:10.37,2013-02-20 18:45:00,
2013-02-20 13:50:00,28.9,23.5,29.67,SE,135,4.1,4.1,80,0.00,SCT,,0.00,WeatherDisplay:10.37,2013-02-20 18:50:00,
2013-02-20 13:55:00,28.9,23.5,29.67,NW,315,4.1,8.1,80,0.00,SCT,,0.00,WeatherDisplay:10.37,2013-02-20 18:55:00,
2013-02-20 14:00:00,28.9,23.5,29.67,NW,315,4.5,5.8,80,0.00,SCT,,0.00,WeatherDisplay:10.37,2013-02-20 19:00:00,
2013-02-20 14:05:00,28.9,23.5,29.67,SW,225,4.5,5.8,80,0.00,CLR,,0.00,WeatherDisplay:10.37,2013-02-20 19:05:00,
2013-02-20 14:10:00,28.9,23.5,29.67,SW,225,4.3,4.3,80,0.00,CLR,,0.00,WeatherDisplay:10.37,2013-02-20 19:10:00,
2013-02-20 14:15:00,28.9,23.5,29.67,SW,225,4.7,8.1,80,0.00,CLR,,0.00,WeatherDisplay:10.37,2013-02-20 19:15:00,
2013-02-20 14:20:00,28.9,23.5,29.68,NE,45,4.1,4.6,80,0.00,CLR,,0.00,WeatherDisplay:10.37,2013-02-20 19:20:00,
2013-02-20 14:25:00,28.9,23.5,29.68,SSW,202,3.2,9.2,80,0.00,CLR,,0.00,WeatherDisplay:10.37,2013-02-20 19:25:00,
2013-02-20 14:30:00,28.9,23.5,29.68,SW,225,2.6,3.5,80,0.00,CLR,,0.00,WeatherDisplay:10.37,2013-02-20 19:30:00,
2013-02-20 14:35:00,28.9,23.5,29.68,NW,315,2.3,3.5,80,0.00,CLR,,0.00,WeatherDisplay:10.37,2013-02-20 19:35:00,
2013-02-20 14:40:00,28.9,23.5,29.69,SW,225,3.2,6.9,80,0.00,CLR,,0.00,WeatherDisplay:10.37,2013-02-20 19:40:00,
2013-02-20 14:45:00,28.9,23.5,29.69,WSW,248,3.9,4.6,80,0.00,CLR,,0.00,WeatherDisplay:10.37,2013-02-20 19:45:00,
2013-02-20 14:50:00,28.9,23.5,29.69,SSW,202,3.2,4.6,80,0.00,CLR,,0.00,WeatherDisplay:10.37,2013-02-20 19:50:00,
2013-02-20 14:55:00,28.9,23.5,29.69,SW,225,3.5,12.7,80,0.00,CLR,,0.00,WeatherDisplay:10.37,2013-02-20 19:55:00,
2013-02-20 15:00:00,28.9,23.5,29.69,SSW,202,3.9,6.9,80,0.00,CLR,,0.00,WeatherDisplay:10.37,2013-02-20 20:00:00,
2013-02-20 15:05:00,28.9,23.5,29.69,NE,45,3.5,4.6,80,0.00,CLR,,0.00,WeatherDisplay:10.37,2013-02-20 20:05:00,
2013-02-20 15:10:00,28.9,23.5,29.69,NNW,338,2.9,2.9,80,0.00,CLR,,0.00,WeatherDisplay:10.37,2013-02-20 20:10:00,
2013-02-20 15:15:00,28.9,23.5,29.69,SW,225,3.2,4.6,80,0.00,CLR,,0.00,WeatherDisplay:10.37,2013-02-20 20:15:00,
2013-02-20 15:20:00,28.9,23.5,29.69,NNW,338,3.2,4.6,80,0.00,CLR,,0.00,WeatherDisplay:10.37,2013-02-20 20:20:00,
2013-02-20 15:25:00,28.9,23.5,29.69,NNE,22,3.5,5.8,80,0.00,CLR,,0.00,WeatherDisplay:10.37,2013-02-20 20:25:00,
2013-02-20 15:30:00,28.9,23.5,29.69,North,0,3.7,8.1,80,0.00,CLR,,0.00,WeatherDisplay:10.37,2013-02-20 20:30:00,
2013-02-20 15:35:00,28.9,23.5,29.69,NNW,338,3.9,8.1,80,0.00,CLR,,0.00,WeatherDisplay:10.37,2013-02-20 20:35:00,
2013-02-20 15:40:00,28.9,23.5,29.70,SW,225,4.1,4.1,80,0.00,CLR,,0.00,WeatherDisplay:10.37,2013-02-20 20:40:00,
2013-02-20 15:45:00,28.9,23.5,29.70,SSW,202,3.9,6.9,80,0.00,CLR,,0.00,WeatherDisplay:10.37,2013-02-20 20:45:00,
2013-02-20 15:50:00,28.9,23.5,29.70,NW,315,3.9,11.5,80,0.00,CLR,,0.00,WeatherDisplay:10.37,2013-02-20 20:50:00,
2013-02-20 15:55:00,28.9,23.5,29.70,West,270,4.3,5.8,80,0.00,CLR,,0.00,WeatherDisplay:10.37,2013-02-20 20:55:00,
2013-02-20 16:00:00,28.9,23.5,29.64,SW,225,3.1,4.6,80,0.00,CLR,,0.00,WeatherDisplay:10.37,2013-02-20 21:00:00,
2013-02-20 16:05:00,28.9,23.5,29.64,NE,45,3.3,8.1,80,0.00,CLR,,0.00,WeatherDisplay:10.37,2013-02-20 21:05:00,
2013-02-20 16:10:00,28.9,23.5,29.64,NNW,338,4.0,6.9,80,0.00,CLR,,0.00,WeatherDisplay:10.37,2013-02-20 21:10:00,
2013-02-20 16:15:00,28.9,23.5,29.64,West,270,4.1,4.1,80,0.00,CLR,,0.00,WeatherDisplay:10.37,2013-02-20 21:15:00,
2013-02-20 16:20:00,28.9,23.5,29.66,WSW,248,3.6,3.6,80,0.00,CLR,,0.00,WeatherDisplay:10.37,2013-02-20 21:20:00,
2013-02-20 16:25:00,28.9,23.5,29.66,SW,225,4.0,10.4,80,0.00,CLR,,0.00,WeatherDisplay:10.37,2013-02-20 21:25:00,
2013-02-20 16:30:00,28.9,23.5,29.66,West,270,4.4,4.6,80,0.00,CLR,,0.00,WeatherDisplay:10.37,2013-02-20 21:30:00,
2013-02-20 16:35:00,28.9,23.5,29.66,NNE,22,3.2,9.2,80,0.00,CLR,,0.00,WeatherDisplay:10.37,2013-02-20 21:35:00,
2013-02-20 16:40:00,28.9,23.5,29.64,SW,225,3.3,6.9,80,0.00,CLR,,0.00,WeatherDisplay:10.37,2013-02-20 21:40:00,
2013-02-20 16:45:00,28.9,23.5,29.64,WSW,248,4.3,10.4,80,0.00,CLR,,0.00,WeatherDisplay:10.37,2013-02-20 21:45:00,
2013-02-20 16:50:00,28.9,23.5,29.64,SSW,202,4.3,4.6,80,0.00,CLR,,0.00,WeatherDisplay:10.37,2013-02-20 21:50:00,
2013-02-20 16:55:00,27.5,13.0,29.64,SW,225,3.7,3.7,54,0.00,CLR,,0.00,WeatherDisplay:10.37,2013-02-20 21:55:00,
2013-02-20 17:00:00,27.0,12.9,29.65,WSW,248,3.7,9.2,55,0.00,CLR,,0.00,WeatherDisplay:10.37,2013-02-20 22:00:00,
2013-02-20 17:05:00,27.1,13.1,29.65,NNW,338,3.7,4.6,55,0.00,BKN,,0.00,WeatherDisplay:10.37,2013-02-20 22:05:00,
2013-02-20 17:10:00,26.8,12.3,29.65,NNW,338,4.4,11.5,54,0.00,BKN,,0.00,WeatherDisplay:10.37,2013-02-20 22:10:00,
2013-02-20 17:15:00,26.8,12.3,29.65,NNW,338,4.1,4.1,54,0.00,BKN,,0.00,WeatherDisplay:10.37,2013-02-20 22:15:00,
2013-02-20 17:20:00,26.8,13.2,29.72,NNW,338,2.1,2.1,56,0.00,BKN,,0.00,WeatherDisplay:10.37,2013-02-20 22:20:00,
2013-02-20 17:25:00,26.2,13.1,29.72,NNW,338,1.6,3.5,57,0.00,BKN,,0.00,WeatherDisplay:10.37,2013-02-20 22:25:00,
2013-02-20 17:30:00,26.1,12.9,29.72,NNW,338,2.0,4.6,57,0.00,BKN,,0.00,WeatherDisplay:10.37,2013-02-20 22:30:00,
2013-02-20 17:35:00,26.1,12.9,29.72,NNW,338,2.6,6.9,57,0.00,BKN,,0.00,WeatherDisplay:10.37,2013-02-20 22:35:00,
2013-02-20 17:40:00,25.7,12.6,29.73,NNW,338,3.1,4.6,57,0.00,BKN,,0.00,WeatherDisplay:10.37,2013-02-20 22:40:00,
2013-02-20 17:45:00,25.7,12.9,29.73,NNW,338,3.1,3.5,58,0.00,BKN,,0.00,WeatherDisplay:10.37,2013-02-20 22:45:00,
2013-02-20 17:50:00,25.3,12.6,29.73,NNW,338,3.0,12.7,58,0.00,BKN,,0.00,WeatherDisplay:10.37,2013-02-20 22:50:00,
2013-02-20 17:55:00,25.3,12.6,29.73,NNW,338,3.3,5.8,58,0.00,BKN,,0.00,WeatherDisplay:10.37,2013-02-20 22:55:00,
2013-02-20 18:00:00,25.3,12.2,29.67,NNW,338,3.3,3.5,57,0.00,BKN,,0.00,WeatherDisplay:10.37,2013-02-20 23:00:00,
2013-02-20 18:05:00,25.3,12.2,29.67,NNW,338,3.9,6.9,57,0.00,OVC,,0.00,WeatherDisplay:10.37,2013-02-20 23:05:00,
2013-02-20 18:10:00,25.3,12.6,29.67,NNW,338,4.1,9.2,58,0.00,OVC,,0.00,WeatherDisplay:10.37,2013-02-20 23:10:00,
2013-02-20 18:15:00,25.0,12.3,29.67,NNW,338,4.1,4.6,58,0.00,OVC,,0.00,WeatherDisplay:10.37,2013-02-20 23:15:00,
2013-02-20 18:20:00,25.0,12.3,29.67,NNW,338,3.6,3.6,58,0.00,OVC,,0.00,WeatherDisplay:10.37,2013-02-20 23:20:00,
2013-02-20 18:25:00,24.8,12.5,29.67,NNW,338,3.6,3.6,59,0.00,OVC,,0.00,WeatherDisplay:10.37,2013-02-20 23:25:00,
2013-02-20 18:30:00,24.6,12.7,29.67,NNW,338,3.8,5.8,60,0.00,OVC,,0.00,WeatherDisplay:10.37,2013-02-20 23:30:00,
2013-02-20 18:35:00,24.6,12.7,29.67,NNW,338,3.0,3.5,60,0.00,OVC,,0.00,WeatherDisplay:10.37,2013-02-20 23:35:00,
2013-02-20 18:40:00,24.6,12.7,29.67,NNW,338,2.4,6.9,60,0.00,OVC,,0.00,WeatherDisplay:10.37,2013-02-20 23:40:00,
2013-02-20 18:45:00,24.6,12.7,29.67,NNW,338,2.3,2.3,60,0.00,OVC,,0.00,WeatherDisplay:10.37,2013-02-20 23:45:00,
2013-02-20 18:50:00,24.3,12.4,29.67,NNW,338,2.8,3.5,60,0.00,OVC,,0.00,WeatherDisplay:10.37,2013-02-20 23:50:00,
2013-02-20 18:55:00,24.3,12.4,29.67,NNW,338,3.0,3.0,60,0.00,OVC,,0.00,WeatherDisplay:10.37,2013-02-20 23:55:00,
2013-02-20 19:00:00,24.3,12.4,29.68,NNW,338,3.1,4.6,60,0.00,OVC,,0.00,WeatherDisplay:10.37,2013-02-21 00:00:00,
2013-02-20 19:05:00,24.3,12.4,29.68,NNW,338,3.1,3.1,60,0.00,SCT,,0.00,WeatherDisplay:10.37,2013-02-21 00:05:00,
2013-02-20 19:10:00,24.1,12.2,29.68,NNW,338,3.5,3.5,60,0.00,SCT,,0.00,WeatherDisplay:10.37,2013-02-21 00:10:00,
2013-02-20 19:15:00,24.3,12.4,29.68,NNW,338,2.8,2.8,60,0.00,SCT,,0.00,WeatherDisplay:10.37,2013-02-21 00:15:00,
2013-02-20 19:20:00,24.3,12.4,29.69,NNW,338,2.6,2.6,60,0.00,SCT,,0.00,WeatherDisplay:10.37,2013-02-21 00:20:00,
2013-02-20 19:26:00,24.3,12.7,29.69,NNW,338,2.6,3.5,61,0.00,SCT,,0.00,WeatherDisplay:10.37,2013-02-21 00:26:00,
2013-02-20 19:31:00,24.3,12.7,29.69,NNW,338,2.4,2.4,61,0.00,SCT,,0.00,WeatherDisplay:10.37,2013-02-21 00:31:00,
2013-02-20 19:36:00,24.3,12.7,29.69,NNW,338,2.0,6.9,61,0.00,SCT,,0.00,WeatherDisplay:10.37,2013-02-21 00:36:00,
2013-02-20 19:41:00,24.6,12.7,29.69,NNW,338,2.8,6.9,60,0.00,SCT,,0.00,WeatherDisplay:10.37,2013-02-21 00:41:00,
2013-02-20 19:46:00,24.4,13.3,29.69,NNW,338,3.2,3.2,62,0.00,SCT,,0.00,WeatherDisplay:10.37,2013-02-21 00:46:00,
2013-02-20 19:51:00,24.6,13.4,29.69,NNW,338,2.6,2.6,62,0.00,SCT,,0.00,WeatherDisplay:10.37,2013-02-21 00:51:00,
2013-02-20 19:56:00,24.6,13.1,29.69,NNW,338,2.4,2.4,61,0.00,SCT,,0.00,WeatherDisplay:10.37,2013-02-21 00:56:00,
2013-02-20 20:01:00,24.6,13.4,29.69,NNW,338,2.3,4.6,62,0.00,OVC,,0.00,WeatherDisplay:10.37,2013-02-21 01:01:00,
2013-02-20 20:06:00,24.6,13.4,29.69,NNW,338,3.2,6.9,62,0.00,OVC,,0.00,WeatherDisplay:10.37,2013-02-21 01:06:00,
2013-02-20 20:11:00,24.6,13.4,29.69,NNW,338,3.5,3.5,62,0.00,OVC,,0.00,WeatherDisplay:10.37,2013-02-21 01:11:00,
2013-02-20 20:16:00,24.6,13.4,29.69,NNW,338,3.9,7.0,62,0.00,OVC,,0.00,WeatherDisplay:10.37,2013-02-21 01:16:00,
2013-02-20 20:21:00,24.6,13.8,29.70,NNW,338,3.6,4.9,63,0.00,OVC,,0.00,WeatherDisplay:10.37,2013-02-21 01:21:00,
2013-02-20 20:26:00,24.6,13.8,29.70,NNW,338,3.5,6.9,63,0.00,OVC,,0.00,WeatherDisplay:10.37,2013-02-21 01:26:00,
2013-02-20 20:31:00,24.3,13.5,29.70,NNW,338,3.8,3.8,63,0.00,OVC,,0.00,WeatherDisplay:10.37,2013-02-21 01:31:00,
2013-02-20 20:36:00,24.1,13.3,29.70,NNW,338,3.7,5.8,63,0.00,OVC,,0.00,WeatherDisplay:10.37,2013-02-21 01:36:00,
2013-02-20 20:41:00,24.3,13.5,29.69,NNW,338,3.2,6.9,63,0.00,OVC,,0.00,WeatherDisplay:10.37,2013-02-21 01:41:00,
2013-02-20 20:46:00,23.9,13.1,29.69,NNW,338,2.8,2.8,63,0.00,OVC,,0.00,WeatherDisplay:10.37,2013-02-21 01:46:00,
2013-02-20 20:51:00,23.9,13.1,29.69,NNW,338,2.9,9.2,63,0.00,OVC,,0.00,WeatherDisplay:10.37,2013-02-21 01:51:00,
2013-02-20 20:56:00,23.5,13.1,29.69,NNW,338,2.6,3.5,64,0.00,OVC,,0.00,WeatherDisplay:10.37,2013-02-21 01:56:00,
2013-02-20 21:01:00,23.5,13.1,29.69,NNW,338,3.2,5.8,64,0.00,OVC,,0.00,WeatherDisplay:10.37,2013-02-21 02:01:00,
2013-02-20 21:06:00,23.5,13.5,29.69,NNW,338,3.8,6.9,65,0.00,OVC,,0.00,WeatherDisplay:10.37,2013-02-21 02:06:00,
2013-02-20 21:11:00,23.5,13.5,29.69,NNW,338,4.1,8.1,65,0.00,OVC,,0.00,WeatherDisplay:10.37,2013-02-21 02:11:00,
2013-02-20 21:16:00,23.5,13.1,29.69,NNW,338,3.3,4.6,64,0.00,OVC,,0.00,WeatherDisplay:10.37,2013-02-21 02:16:00,
2013-02-20 21:21:00,23.5,13.5,29.72,NNW,338,2.9,2.9,65,0.00,OVC,,0.00,WeatherDisplay:10.37,2013-02-21 02:21:00,
2013-02-20 21:26:00,23.2,13.1,29.72,NNW,338,1.5,0.0,65,0.00,OVC,,0.00,WeatherDisplay:10.37,2013-02-21 02:26:00,
2013-02-20 21:31:00,23.2,13.5,29.72,NNW,338,1.5,2.3,66,0.00,OVC,,0.00,WeatherDisplay:10.37,2013-02-21 02:31:00,
2013-02-20 21:36:00,23.2,13.5,29.72,NNW,338,2.6,4.6,66,0.00,OVC,,0.00,WeatherDisplay:10.37,2013-02-21 02:36:00,
2013-02-20 21:41:00,23.2,13.5,29.72,NNW,338,3.0,9.2,66,0.00,OVC,,0.00,WeatherDisplay:10.37,2013-02-21 02:41:00,
2013-02-20 21:46:00,23.2,13.5,29.72,NNW,338,2.9,2.9,66,0.00,OVC,,0.00,WeatherDisplay:10.37,2013-02-21 02:46:00,
2013-02-20 21:51:00,23.2,13.5,29.72,NNW,338,2.3,3.8,66,0.00,OVC,,0.00,WeatherDisplay:10.37,2013-02-21 02:51:00,
2013-02-20 21:56:00,23.2,13.8,29.72,NNW,338,1.5,9.2,67,0.00,OVC,,0.00,WeatherDisplay:10.37,2013-02-21 02:56:00,
2013-02-20 22:01:00,23.5,14.2,29.72,NNW,338,2.0,2.0,67,0.00,FEW,,0.00,WeatherDisplay:10.37,2013-02-21 03:01:00,
2013-02-20 22:06:00,23.4,13.7,29.72,NNW,338,2.6,4.6,66,0.00,FEW,,0.00,WeatherDisplay:10.37,2013-02-21 03:06:00,
2013-02-20 22:11:00,23.4,14.0,29.72,NNW,338,2.9,2.9,67,0.00,FEW,,0.00,WeatherDisplay:10.37,2013-02-21 03:11:00,
2013-02-20 22:16:00,23.4,14.0,29.72,NNW,338,2.9,6.9,67,0.00,FEW,,0.00,WeatherDisplay:10.37,2013-02-21 03:16:00,
2013-02-20 22:21:00,23.5,14.2,29.71,NNW,338,2.6,4.6,67,0.00,FEW,,0.00,WeatherDisplay:10.37,2013-02-21 03:21:00,
2013-02-20 22:26:00,23.5,14.2,29.71,NNW,338,3.9,4.6,67,0.00,FEW,,0.00,WeatherDisplay:10.37,2013-02-21 03:26:00,
2013-02-20 22:31:00,23.5,14.2,29.71,NNW,338,3.8,3.8,67,0.00,FEW,,0.00,WeatherDisplay:10.37,2013-02-21 03:31:00,
2013-02-20 22:36:00,23.9,14.5,29.71,NNW,338,3.5,6.9,67,0.00,FEW,,0.00,WeatherDisplay:10.37,2013-02-21 03:36:00,
2013-02-20 22:41:00,23.5,14.2,29.73,NNW,338,2.8,2.8,67,0.00,FEW,,0.00,WeatherDisplay:10.37,2013-02-21 03:41:00,
2013-02-20 22:46:00,23.5,14.2,29.73,NNW,338,2.4,2.4,67,0.00,FEW,,0.00,WeatherDisplay:10.37,2013-02-21 03:46:00,
2013-02-20 22:51:00,23.4,14.0,29.73,NNW,338,2.6,8.1,67,0.00,FEW,,0.00,WeatherDisplay:10.37,2013-02-21 03:51:00,
2013-02-20 22:56:00,23.9,14.5,29.73,NNW,338,3.5,4.6,67,0.00,FEW,,0.00,WeatherDisplay:10.37,2013-02-21 03:56:00,
2013-02-20 23:01:00,23.9,14.5,29.74,NNW,338,3.7,3.7,67,0.00,CLR,,0.00,WeatherDisplay:10.37,2013-02-21 04:01:00,
2013-02-20 23:06:00,23.9,14.5,29.74,NNW,338,3.7,9.2,67,0.00,CLR,,0.00,WeatherDisplay:10.37,2013-02-21 04:06:00,
2013-02-20 23:11:00,23.9,14.9,29.74,NNW,338,3.3,3.3,68,0.00,CLR,,0.00,WeatherDisplay:10.37,2013-02-21 04:11:00,
2013-02-20 23:16:00,23.9,14.9,29.74,NNW,338,3.2,4.6,68,0.00,CLR,,0.00,WeatherDisplay:10.37,2013-02-21 04:16:00,
2013-02-20 23:21:00,23.9,14.9,29.74,NNW,338,3.2,3.2,68,0.00,CLR,,0.00,WeatherDisplay:10.37,2013-02-21 04:21:00,
2013-02-20 23:26:00,23.9,14.9,29.74,NNW,338,3.0,4.6,68,0.00,CLR,,0.00,WeatherDisplay:10.37,2013-02-21 04:26:00,
2013-02-20 23:31:00,23.9,14.9,29.74,NNW,338,3.3,9.2,68,0.00,CLR,,0.00,WeatherDisplay:10.37,2013-02-21 04:31:00,
2013-02-20 23:36:00,23.9,14.5,29.74,NNW,338,3.7,4.6,67,0.00,CLR,,0.00,WeatherDisplay:10.37,2013-02-21 04:36:00,
2013-02-20 23:41:00,23.9,14.9,29.73,NNW,338,3.3,4.6,68,0.00,CLR,,0.00,WeatherDisplay:10.37,2013-02-21 04:41:00,
2013-02-20 23:46:00,23.9,14.9,29.73,NNW,338,2.5,3.5,68,0.00,CLR,,0.00,WeatherDisplay:10.37,2013-02-21 04:46:00,
2013-02-20 23:51:00,23.5,14.9,29.73,NNW,338,2.6,4.6,69,0.00,CLR,,0.00,WeatherDisplay:10.37,2013-02-21 04:51:00,
2013-02-20 23:56:00,23.9,15.2,29.73,NNW,338,2.6,5.8,69,0.00,CLR,,0.00,WeatherDisplay:10.37,2013-02-21 04:56:00,